Time;durP1;ratioP1;P1;durP2;ratioP2;P2;SDS_P1;SDS_P2;PMS_P1;PMS_P2;Temp;Humidity;BMP_temperature;BMP_pressure;BME280_temperature;BME280_humidity;BME280_pressure;Samples;Min_cycle;Max_cycle;Signal;HPM_P1;HPM_P2
2022/12/13 00:00:24;;;;;;;52.28;19.70;;;;;;;-148.88;100.00;77886.19;5013126;28;20097;-73
2022/12/13 00:02:49;;;;;;;53.00;19.65;;;;;;;-148.88;100.00;77892.28;5011477;28;20368;-73
2022/12/13 00:05:14;;;;;;;53.65;19.15;;;;;;;-148.88;100.00;77890.25;5012712;28;20080;-73
2022/12/13 00:07:40;;;;;;;49.90;18.15;;;;;;;-148.88;100.00;77886.19;5013059;28;20026;-73
2022/12/13 00:10:06;;;;;;;45.97;18.77;;;;;;;-148.88;100.00;77884.16;5012915;28;20026;-73
2022/12/13 00:12:31;;;;;;;47.63;16.65;;;;;;;-148.88;100.00;77886.19;5012723;28;20479;-74
2022/12/13 00:14:56;;;;;;;45.45;18.40;;;;;;;-148.88;100.00;77886.19;5012769;28;20128;-73
2022/12/13 00:17:22;;;;;;;40.38;17.20;;;;;;;-148.88;100.00;77890.25;5011315;28;20076;-74
2022/12/13 00:19:47;;;;;;;50.72;18.63;;;;;;;-148.88;100.00;77898.38;5013154;28;20026;-73
2022/12/13 00:22:13;;;;;;;44.42;18.02;;;;;;;-148.88;100.00;77896.34;5012810;28;20104;-73
2022/12/13 00:24:39;;;;;;;46.25;18.55;;;;;;;-148.88;100.00;77890.25;5018498;28;20042;-72
2022/12/13 00:27:05;;;;;;;47.72;18.20;;;;;;;-148.88;100.00;77898.38;5017542;28;20036;-72
2022/12/13 00:29:31;;;;;;;42.13;15.73;;;;;;;-148.88;100.00;77886.19;5013210;28;20431;-72
2022/12/13 00:31:56;;;;;;;40.13;15.52;;;;;;;-148.88;100.00;77886.19;5013209;28;20088;-72
2022/12/13 00:34:22;;;;;;;38.90;16.25;;;;;;;-148.88;100.00;77890.25;5013230;28;20025;-72
2022/12/13 00:36:47;;;;;;;45.83;17.92;;;;;;;-148.88;100.00;77888.22;5013165;28;20033;-72
2022/12/13 00:39:15;;;;;;;40.78;15.23;;;;;;;-148.88;100.00;77888.22;5014549;28;20030;-72
2022/12/13 00:41:42;;;;;;;45.13;16.95;;;;;;;-148.88;100.00;77908.53;5016701;28;20081;-72
2022/12/13 00:44:10;;;;;;;35.45;14.40;;;;;;;-148.88;100.00;77908.53;5016479;28;20057;-73
2022/12/13 00:46:36;;;;;;;45.30;17.20;;;;;;;-148.88;100.00;77922.75;5016576;28;20077;-73
2022/12/13 00:49:02;;;;;;;38.95;14.52;;;;;;;-148.88;100.00;77922.75;5016397;28;20026;-72
2022/12/13 00:51:29;;;;;;;40.20;15.77;;;;;;;-148.88;100.00;77922.75;5016330;28;20055;-73
2022/12/13 00:53:58;;;;;;;40.63;16.55;;;;;;;-148.88;100.00;77928.84;5016302;28;20040;-73
2022/12/13 00:56:26;;;;;;;37.58;15.65;;;;;;;-148.88;100.00;77934.97;5016313;28;20026;-72
2022/12/13 00:58:52;;;;;;;43.90;17.95;;;;;;;-148.88;100.00;77939.03;5016205;28;20457;-73
2022/12/13 01:01:21;;;;;;;45.83;16.73;;;;;;;-148.88;100.00;77943.09;5016663;28;20029;-72
2022/12/13 01:03:46;;;;;;;46.92;16.67;;;;;;;-148.88;100.00;77947.16;5016445;28;20351;-72
2022/12/13 01:06:33;;;;;;;46.17;17.73;;;;;;;-148.88;100.00;77951.22;5016084;28;20109;-72
2022/12/13 01:08:59;;;;;;;43.05;15.75;;;;;;;-148.88;100.00;77953.25;5015426;28;20038;-72
2022/12/13 01:11:24;;;;;;;51.65;17.95;;;;;;;-148.88;100.00;77955.28;5015863;28;20395;-72
2022/12/13 01:13:50;;;;;;;47.67;16.67;;;;;;;-148.88;100.00;77951.22;5015896;28;20052;-72
2022/12/13 01:16:15;;;;;;;44.08;17.15;;;;;;;-148.88;100.00;77943.09;5016408;28;20379;-72
2022/12/13 01:18:41;;;;;;;46.92;17.50;;;;;;;-148.88;100.00;77943.09;5016302;28;20079;-72
2022/12/13 01:21:16;;;;;;;50.53;16.85;;;;;;;-148.88;100.00;77937.00;5015816;28;20109;-73
2022/12/13 01:23:42;;;;;;;43.28;16.50;;;;;;;-148.88;100.00;77930.91;5015898;28;20026;-73
2022/12/13 01:26:11;;;;;;;39.08;15.90;;;;;;;-148.88;100.00;77934.97;5015795;28;20501;-73
2022/12/13 01:28:36;;;;;;;46.42;17.40;;;;;;;-148.88;100.00;77943.09;5016032;28;20042;-72
2022/12/13 01:31:05;;;;;;;40.08;16.88;;;;;;;-148.88;100.00;77945.13;5015729;28;20021;-73
2022/12/13 01:33:31;;;;;;;45.40;17.52;;;;;;;-148.88;100.00;77939.03;5015773;28;20056;-73
2022/12/13 01:36:01;;;;;;;45.35;16.52;;;;;;;-148.88;100.00;77939.03;5015668;28;20033;-73
2022/12/13 01:38:27;;;;;;;40.08;16.42;;;;;;;-148.88;100.00;77932.94;5015751;28;20079;-72
2022/12/13 01:40:58;;;;;;;46.38;17.90;;;;;;;-148.88;100.00;77930.91;5014420;28;20029;-72
2022/12/13 01:43:35;;;;;;;37.88;16.20;;;;;;;-148.88;100.00;77937.00;5015483;28;20026;-72
2022/12/13 01:46:01;;;;;;;40.97;15.35;;;;;;;-148.88;100.00;77943.09;5015378;28;20034;-72
2022/12/13 01:51:53;;;;;;;42.85;16.35;;;;;;;-148.88;100.00;77951.22;5014636;28;20368;-72
2022/12/13 01:54:32;;;;;;;43.78;16.60;;;;;;;-148.88;100.00;77947.16;5015243;28;20034;-72
2022/12/13 02:03:41;;;;;;;40.67;15.20;;;;;;;-148.88;100.00;77963.41;5014881;28;20092;-72
2022/12/13 02:06:14;;;;;;;39.25;15.82;;;;;;;-148.88;100.00;77967.47;5014988;28;20457;-73
2022/12/13 02:08:41;;;;;;;43.08;16.17;;;;;;;-148.88;100.00;77967.47;5015110;28;20438;-73
2022/12/13 02:11:08;;;;;;;41.80;16.30;;;;;;;-148.88;100.00;77963.41;5014992;28;20109;-73
2022/12/13 02:13:34;;;;;;;44.47;15.80;;;;;;;-148.88;100.00;77959.34;5015198;28;20497;-72
2022/12/13 02:19:39;;;;;;;37.28;13.40;;;;;;;-148.88;100.00;77981.69;5015387;28;20108;-72
2022/12/13 02:23:05;;;;;;;43.33;15.48;;;;;;;-148.88;100.00;77979.66;5015135;28;20105;-72
2022/12/13 02:25:42;;;;;;;46.88;15.75;;;;;;;-148.88;100.00;77973.56;5014782;28;20033;-72
2022/12/13 02:28:38;;;;;;;36.85;14.73;;;;;;;-148.88;100.00;77969.50;5014917;28;20041;-72
2022/12/13 02:31:11;;;;;;;43.10;14.80;;;;;;;-148.88;100.00;77965.44;5014858;28;20061;-73
2022/12/13 02:33:49;;;;;;;;;;;;;;;-148.88;100.00;77987.78;5015302;28;20022;-72
2022/12/13 02:36:36;;;;;;;37.67;14.77;;;;;;;-148.88;100.00;77987.78;5013532;28;20278;-72
2022/12/13 02:39:10;;;;;;;41.45;15.90;;;;;;;-148.88;100.00;77991.84;5014737;28;20117;-73
2022/12/13 02:41:46;;;;;;;43.05;16.73;;;;;;;-148.88;100.00;77991.84;5014845;28;20486;-73
2022/12/13 02:44:19;;;;;;;44.83;14.45;;;;;;;-148.88;100.00;77989.81;5014498;28;20022;-73
2022/12/13 02:47:00;;;;;;;45.80;14.70;;;;;;;-148.88;100.00;77985.75;5013458;28;20029;-72
2022/12/13 02:49:30;;;;;;;36.72;14.63;;;;;;;-148.88;100.00;77983.72;5014700;28;20455;-73
2022/12/13 02:51:56;;;;;;;42.20;14.48;;;;;;;-148.88;100.00;77993.91;5014728;28;20336;-72
2022/12/13 02:54:23;;;;;;;45.60;15.73;;;;;;;-148.88;100.00;78000.00;5014416;28;20026;-73
2022/12/13 02:56:59;;;;;;;44.88;16.45;;;;;;;-148.88;100.00;78000.00;5014308;28;20037;-72
2022/12/13 02:59:29;;;;;;;36.50;14.20;;;;;;;-148.88;100.00;78000.00;5014489;28;20033;-73
2022/12/13 03:02:21;;;;;;;38.38;14.27;;;;;;;-148.88;100.00;77993.91;5013526;28;20034;-72
2022/12/13 03:08:09;;;;;;;40.45;14.43;;;;;;;-148.88;100.00;77983.72;5013895;28;20475;-73
2022/12/13 03:10:48;;;;;;;37.50;14.20;;;;;;;-148.88;100.00;77991.84;5014197;28;20025;-72
2022/12/13 03:13:39;;;;;;;49.45;16.38;;;;;;;-148.88;100.00;77991.84;5014036;28;20488;-72
2022/12/13 03:16:23;;;;;;;54.22;14.07;;;;;;;-148.88;100.00;77987.78;5014278;28;20486;-72
2022/12/13 03:18:52;;;;;;;47.08;15.88;;;;;;;-148.88;100.00;77975.59;5014327;28;20029;-72
2022/12/13 03:21:17;;;;;;;43.47;15.07;;;;;;;-148.88;100.00;77979.66;5014017;28;20076;-72
2022/12/13 03:23:45;;;;;;;51.38;16.67;;;;;;;-148.88;100.00;77977.63;5013830;28;20030;-72
2022/12/13 03:29:31;;;;;;;45.63;16.13;;;;;;;-148.88;100.00;77983.72;5014391;28;20123;-72
2022/12/13 03:31:56;;;;;;;47.50;17.20;;;;;;;-148.88;100.00;77979.66;5014104;28;20057;-72
2022/12/13 03:34:22;;;;;;;53.35;17.60;;;;;;;-148.88;100.00;77987.78;5012156;28;20109;-73
2022/12/13 03:36:47;;;;;;;56.90;16.05;;;;;;;-148.88;100.00;77985.75;5013665;28;20093;-73
2022/12/13 03:39:12;;;;;;;43.22;14.27;;;;;;;-148.88;100.00;77975.59;5012309;28;20022;-73
2022/12/13 03:41:38;;;;;;;58.53;16.52;;;;;;;-148.88;100.00;77977.63;5012104;28;20021;-73
2022/12/13 03:44:06;;;;;;;88.07;17.35;;;;;;;-148.88;100.00;77979.66;5013329;28;20105;-73
2022/12/13 03:46:31;;;;;;;53.53;16.67;;;;;;;-148.88;100.00;77975.59;5013468;28;20498;-73
2022/12/13 03:48:56;;;;;;;52.10;16.98;;;;;;;-148.88;100.00;77971.53;5013864;28;20021;-73
2022/12/13 03:51:22;;;;;;;54.25;15.48;;;;;;;-148.88;100.00;77971.53;5013441;28;20109;-73
2022/12/13 03:53:47;;;;;;;49.13;17.50;;;;;;;-148.88;100.00;77963.41;5013377;28;20029;-73
2022/12/13 03:56:12;;;;;;;56.17;18.98;;;;;;;-148.88;100.00;77955.28;5013133;28;20032;-73
2022/12/13 03:58:40;;;;;;;56.28;17.20;;;;;;;-148.88;100.00;77963.41;5013034;28;20092;-73
2022/12/13 04:01:09;;;;;;;59.53;17.42;;;;;;;-148.88;100.00;77971.53;5013059;28;20384;-73
2022/12/13 04:03:37;;;;;;;59.70;16.40;;;;;;;-148.88;100.00;77971.53;5012847;28;20030;-73
2022/12/13 04:06:04;;;;;;;54.80;17.58;;;;;;;-148.88;100.00;77977.63;5013294;28;20029;-73
2022/12/13 04:08:29;;;;;;;45.38;16.55;;;;;;;-148.88;100.00;77971.53;5013275;28;20030;-73
2022/12/13 04:10:54;;;;;;;52.78;18.88;;;;;;;-148.88;100.00;77969.50;5013053;28;20026;-73
2022/12/13 04:13:32;;;;;;;61.88;17.42;;;;;;;-148.88;100.00;77973.56;5010851;28;20441;-73
2022/12/13 04:15:57;;;;;;;57.90;17.08;;;;;;;-148.88;100.00;77973.56;5012798;28;20029;-72
2022/12/13 04:21:44;;;;;;;48.45;16.35;;;;;;;-148.88;100.00;77965.44;5013335;28;20040;-72
2022/12/13 04:24:09;;;;;;;45.00;15.93;;;;;;;-148.88;100.00;77957.31;5013082;28;20018;-72
2022/12/13 04:26:35;;;;;;;52.00;16.77;;;;;;;-148.88;100.00;77965.44;5012864;28;20100;-72
2022/12/13 04:29:00;;;;;;;54.25;17.60;;;;;;;-148.88;100.00;77967.47;5011482;28;20471;-72
2022/12/13 04:31:25;;;;;;;53.63;15.82;;;;;;;-148.88;100.00;77969.50;5012640;28;20063;-72
2022/12/13 04:33:51;;;;;;;44.33;16.83;;;;;;;-148.88;100.00;77971.53;5012583;28;20106;-72
2022/12/13 04:36:18;;;;;;;45.00;16.17;;;;;;;-148.88;100.00;77959.34;5012647;28;20113;-72
2022/12/13 04:38:45;;;;;;;57.15;17.38;;;;;;;-148.88;100.00;77955.28;5012651;28;20476;-72
2022/12/13 04:41:18;;;;;;;56.20;16.30;;;;;;;-148.88;100.00;77957.31;5012931;28;20025;-73
2022/12/13 04:43:49;;;;;;;49.45;16.77;;;;;;;-148.88;100.00;77957.31;5012490;28;20029;-73
2022/12/13 04:46:15;;;;;;;46.63;16.63;;;;;;;-148.88;100.00;77955.28;5012789;28;20384;-73
2022/12/13 04:48:40;;;;;;;53.35;16.52;;;;;;;-148.88;100.00;77957.31;5012680;28;20494;-72
2022/12/13 04:51:05;;;;;;;47.20;16.02;;;;;;;-148.88;100.00;77959.34;5012656;28;20068;-73
2022/12/13 04:53:31;;;;;;;38.45;13.20;;;;;;;-148.88;100.00;77957.31;5011079;28;20079;-73
2022/12/13 04:55:57;;;;;;;48.40;15.93;;;;;;;-148.88;100.00;77963.41;5012424;28;20357;-73
2022/12/13 04:58:22;;;;;;;46.03;15.52;;;;;;;-148.88;100.00;77965.44;5012434;28;20051;-72
2022/12/13 05:00:47;;;;;;;43.55;15.02;;;;;;;-148.88;100.00;77971.53;5012386;28;20026;-73
2022/12/13 05:03:13;;;;;;;48.53;15.48;;;;;;;-148.88;100.00;77971.53;5012315;28;20117;-73
2022/12/13 05:05:39;;;;;;;43.70;15.32;;;;;;;-148.88;100.00;77979.66;5012581;28;20026;-73
2022/12/13 05:08:05;;;;;;;55.58;17.13;;;;;;;-148.88;100.00;77981.69;5012618;28;20026;-73
2022/12/13 05:10:31;;;;;;;43.92;16.05;;;;;;;-148.88;100.00;77985.75;5012849;28;20041;-73
2022/12/13 05:12:58;;;;;;;46.08;16.35;;;;;;;-148.88;100.00;77993.91;5012595;28;20026;-73
2022/12/13 05:18:45;;;;;;;42.85;14.00;;;;;;;-148.88;100.00;77997.97;5013133;28;20455;-72
2022/12/13 05:24:32;;;;;;;45.38;14.73;;;;;;;-148.88;100.00;78004.06;5013302;28;20076;-72
2022/12/13 05:30:19;;;;;;;48.28;14.88;;;;;;;-148.88;100.00;78012.19;5016425;28;20064;-72
2022/12/13 05:32:44;;;;;;;48.20;14.50;;;;;;;-148.88;100.00;78004.06;5014593;28;20057;-72
2022/12/13 05:35:15;;;;;;;50.15;16.13;;;;;;;-148.88;100.00;78004.06;5015812;28;20033;-73
2022/12/13 05:37:40;;;;;;;51.65;17.10;;;;;;;-148.88;100.00;78004.06;5015598;28;20181;-72
2022/12/13 05:40:06;;;;;;;49.25;15.45;;;;;;;-148.88;100.00;78004.06;5016151;28;20076;-73
2022/12/13 05:42:32;;;;;;;46.53;15.57;;;;;;;-148.88;100.00;77995.94;5014596;28;20490;-72
2022/12/13 05:44:57;;;;;;;53.20;16.77;;;;;;;-148.88;100.00;78000.00;5014386;28;20034;-72
2022/12/13 05:47:22;;;;;;;46.08;15.32;;;;;;;-148.88;100.00;77995.94;5015835;28;20097;-72
2022/12/13 05:49:48;;;;;;;63.47;17.15;;;;;;;-148.88;100.00;77987.78;5015641;28;20076;-72
2022/12/13 05:52:17;;;;;;;51.83;15.38;;;;;;;-148.88;100.00;77983.72;5016149;28;20108;-72
2022/12/13 05:54:43;;;;;;;53.17;14.07;;;;;;;-148.88;100.00;77993.91;5015691;28;20045;-72
2022/12/13 05:57:08;;;;;;;47.00;15.68;;;;;;;-148.88;100.00;78000.00;5016186;28;20091;-72
2022/12/13 05:59:33;;;;;;;43.80;16.02;;;;;;;-148.88;100.00;77995.94;5015775;28;20026;-72
2022/12/13 06:01:59;;;;;;;47.10;15.30;;;;;;;-148.88;100.00;77987.78;5013823;28;20022;-72
2022/12/13 06:04:24;;;;;;;43.25;13.70;;;;;;;-148.88;100.00;77985.75;5013731;28;20034;-72
2022/12/13 06:06:50;;;;;;;54.00;14.63;;;;;;;-148.88;100.00;77979.66;5015370;28;20044;-72
2022/12/13 06:09:16;;;;;;;45.80;14.23;;;;;;;-148.88;100.00;77983.72;5014431;28;20014;-72
2022/12/13 06:11:41;;;;;;;50.95;15.52;;;;;;;-148.88;100.00;77987.78;5015073;28;20364;-77
2022/12/13 06:14:06;;;;;;;43.65;13.02;;;;;;;-148.88;100.00;77991.84;5014974;28;20388;-76
2022/12/13 06:16:31;;;;;;;37.97;14.43;;;;;;;-148.88;100.00;77985.75;5014960;28;20033;-76
2022/12/13 06:18:57;;;;;;;48.85;15.50;;;;;;;-148.88;100.00;77985.75;5013505;28;20030;-76
2022/12/13 06:21:22;;;;;;;42.47;13.73;;;;;;;-148.88;100.00;77975.59;5013317;28;20105;-76
2022/12/13 06:23:47;;;;;;;45.22;14.05;;;;;;;-148.88;100.00;77975.59;5013088;28;20053;-76
2022/12/13 06:26:13;;;;;;;44.65;15.02;;;;;;;-148.88;100.00;77971.53;5014775;28;20033;-76
2022/12/13 06:28:38;;;;;;;42.33;14.48;;;;;;;-148.88;100.00;77971.53;5014740;28;20075;-76
2022/12/13 06:31:04;;;;;;;42.83;15.07;;;;;;;-148.88;100.00;77969.50;5014727;28;20022;-76
2022/12/13 06:33:35;;;;;;;45.78;14.77;;;;;;;-148.88;100.00;77965.44;5014408;28;20052;-76
2022/12/13 06:36:01;;;;;;;41.67;13.93;;;;;;;-148.88;100.00;77967.47;5014053;28;20032;-76
2022/12/13 06:38:26;;;;;;;49.28;15.95;;;;;;;-148.88;100.00;77959.34;5012700;28;20018;-76
2022/12/13 06:40:52;;;;;;;45.40;16.45;;;;;;;-148.88;100.00;77955.28;5014347;28;20026;-76
2022/12/13 06:43:19;;;;;;;47.42;15.30;;;;;;;-148.88;100.00;77959.34;5026320;22;20045;-72
2022/12/13 06:45:44;;;;;;;52.60;16.00;;;;;;;-148.88;100.00;77963.41;5014448;28;20044;-73
2022/12/13 06:48:10;;;;;;;40.97;14.63;;;;;;;-148.88;100.00;77975.59;5014608;28;20022;-73
2022/12/13 06:50:36;;;;;;;49.60;13.75;;;;;;;-148.88;100.00;77979.66;5014257;28;20481;-73
2022/12/13 06:53:01;;;;;;;51.83;15.40;;;;;;;-148.88;100.00;77971.53;5022714;22;20120;-85
2022/12/13 06:55:26;;;;;;;56.25;16.05;;;;;;;-148.88;100.00;77959.34;5014582;28;20038;-85
2022/12/13 06:57:51;;;;;;;46.40;14.13;;;;;;;-148.88;100.00;77967.47;5014915;28;20026;-85
2022/12/13 07:00:17;;;;;;;57.97;15.98;;;;;;;-148.88;100.00;77983.72;5014187;28;20058;-85
2022/12/13 07:02:42;;;;;;;56.78;16.27;;;;;;;-148.88;100.00;77987.78;5014431;28;20081;-85
2022/12/13 07:07:35;;;;;;;59.88;16.25;;;;;;;-148.88;100.00;77987.78;4998377;28;20042;-86
2022/12/13 07:10:00;;;;;;;50.80;15.65;;;;;;;-148.88;100.00;77983.72;4997667;28;20405;-86
2022/12/13 07:12:26;;;;;;;54.20;16.27;;;;;;;-148.88;100.00;77983.72;4998162;28;20496;-86
2022/12/13 07:14:51;;;;;;;61.90;17.70;;;;;;;-148.88;100.00;77985.75;4997490;28;20092;-86
2022/12/13 07:17:16;;;;;;;55.40;17.38;;;;;;;-148.88;100.00;77979.66;4997633;28;20026;-85
2022/12/13 07:19:42;;;;;;;52.80;14.50;;;;;;;-148.88;100.00;77967.47;4998107;28;20034;-86
2022/12/13 07:22:07;;;;;;;55.63;17.80;;;;;;;-148.88;100.00;77959.34;4998568;28;20515;-86
2022/12/13 07:24:36;;;;;;;54.63;15.90;;;;;;;-148.88;100.00;77955.28;4996494;28;20022;-86
2022/12/13 07:27:58;;;;;;;58.22;18.08;;;;;;;-148.88;100.00;77947.16;4994923;28;20084;-86
2022/12/13 07:30:26;;;;;;;51.25;14.90;;;;;;;-148.88;100.00;77951.22;5005200;28;20399;-87
2022/12/13 07:32:51;;;;;;;52.92;16.15;;;;;;;-148.88;100.00;77959.34;4996022;28;20473;-87
2022/12/13 07:35:17;;;;;;;45.55;15.55;;;;;;;-148.88;100.00;77943.09;4993625;28;20041;-87
2022/12/13 07:37:43;;;;;;;53.88;16.75;;;;;;;-148.88;100.00;77947.16;4995123;28;20029;-87
2022/12/13 07:40:10;;;;;;;53.60;16.67;;;;;;;-148.88;100.00;77937.00;4993716;28;20030;-86
2022/12/13 07:42:36;;;;;;;48.72;17.13;;;;;;;-148.88;100.00;77930.91;4995067;28;20499;-86
2022/12/13 07:45:06;;;;;;;58.13;15.15;;;;;;;-148.88;100.00;77945.13;4993807;28;20038;-86
2022/12/13 07:47:32;;;;;;;49.80;15.35;;;;;;;-148.88;100.00;77949.19;4993941;28;20030;-86
2022/12/13 07:49:57;;;;;;;57.28;17.92;;;;;;;-148.88;100.00;77939.03;4993935;28;20033;-85
2022/12/13 07:52:23;;;;;;;45.60;15.27;;;;;;;-148.88;100.00;77947.16;4995245;28;20030;-87
2022/12/13 07:55:17;;;;;;;50.58;15.27;;;;;;;-148.88;100.00;77932.94;4993242;28;20053;-87
2022/12/13 07:57:44;;;;;;;46.35;14.65;;;;;;;-148.88;100.00;77937.00;4993137;28;20517;-87
2022/12/13 08:00:15;;;;;;;53.15;15.60;;;;;;;-148.88;100.00;77947.16;4976192;28;20044;-87
2022/12/13 08:02:42;;;;;;;58.40;16.77;;;;;;;-148.88;100.00;77947.16;4993697;28;20359;-86
2022/12/13 08:05:08;;;;;;;62.80;18.23;;;;;;;-148.88;100.00;77937.00;4992696;28;20026;-86
2022/12/13 08:07:34;;;;;;;51.38;16.00;;;;;;;-148.88;100.00;77934.97;4992571;28;20038;-87
2022/12/13 08:10:00;;;;;;;48.60;15.23;;;;;;;-148.88;100.00;77934.97;4992839;28;20038;-87
2022/12/13 08:12:25;;;;;;;51.05;16.10;;;;;;;-148.88;100.00;77937.00;4992825;28;20022;-87
2022/12/13 08:14:51;;;;;;;53.55;16.13;;;;;;;-148.88;100.00;77930.91;4993108;28;20112;-86
2022/12/13 08:17:16;;;;;;;55.17;16.52;;;;;;;-148.88;100.00;77926.81;4977243;28;20150;-87
2022/12/13 08:19:42;;;;;;;65.20;18.17;;;;;;;-148.88;100.00;77934.97;4993786;28;20173;-87
2022/12/13 08:22:26;;;;;;;47.72;16.50;;;;;;;-148.88;100.00;77922.75;4992569;28;20022;-87
2022/12/13 08:24:55;;;;;;;53.25;15.40;;;;;;;-148.88;100.00;77916.66;4992657;28;20027;-86
2022/12/13 08:27:21;;;;;;;48.28;15.25;;;;;;;-148.88;100.00;77916.66;4992787;28;20508;-86
2022/12/13 08:29:47;;;;;;;50.08;17.17;;;;;;;-148.88;100.00;77920.72;4992885;28;20473;-86
2022/12/13 08:32:12;;;;;;;58.88;16.98;;;;;;;-148.88;100.00;77910.56;4992455;28;20189;-87
2022/12/13 08:34:38;;;;;;;54.22;16.67;;;;;;;-148.88;100.00;77910.56;4992535;28;20033;-85
2022/12/13 08:37:04;;;;;;;54.97;17.35;;;;;;;-148.88;100.00;77908.53;4992317;28;20481;-86
2022/12/13 08:39:38;;;;;;;52.15;17.50;;;;;;;-148.88;100.00;77914.63;4992492;28;20369;-86
2022/12/13 08:42:24;;;;;;;59.75;17.67;;;;;;;-148.88;100.00;77914.63;4992310;28;20095;-86
2022/12/13 08:44:55;;;;;;;50.10;16.65;;;;;;;-148.88;100.00;77908.53;4990763;28;20030;-87
2022/12/13 08:48:06;;;;;;;51.78;15.95;;;;;;;-148.88;100.00;77902.44;4993423;28;20026;-86
2022/12/13 08:50:31;;;;;;;58.30;17.73;;;;;;;-148.88;100.00;77900.41;4997096;28;20030;-87
2022/12/13 08:53:00;;;;;;;58.92;17.77;;;;;;;-148.88;100.00;77906.50;4993920;28;20049;-87
2022/12/13 08:55:34;;;;;;;52.22;14.85;;;;;;;-148.88;100.00;77890.25;4993619;28;20026;-87
2022/12/13 08:58:13;;;;;;;52.85;16.95;;;;;;;-148.88;100.00;77894.31;4914977;29;20674;-86
2022/12/13 09:00:39;;;;;;;59.38;18.98;;;;;;;-148.88;100.00;77900.41;4901903;29;20036;-84
2022/12/13 09:03:11;;;;;;;54.78;16.13;;;;;;;-148.88;100.00;77898.38;4959429;28;20166;-87
2022/12/13 09:05:37;;;;;;;63.00;17.27;;;;;;;-148.88;100.00;77902.44;4996580;28;20136;-86
2022/12/13 09:08:03;;;;;;;56.50;15.90;;;;;;;-148.88;100.00;77906.50;4996466;28;20026;-86
2022/12/13 09:10:31;;;;;;;58.35;16.48;;;;;;;-148.88;100.00;77900.41;4996378;28;20034;-86
2022/12/13 09:13:00;;;;;;;63.60;17.73;;;;;;;-148.88;100.00;77890.25;4996034;28;20014;-86
2022/12/13 09:15:50;;;;;;;49.88;16.23;;;;;;;-148.88;100.00;77884.16;4997544;28;20061;-86
2022/12/13 09:18:15;;;;;;;64.60;17.02;;;;;;;-148.88;100.00;77876.03;4995864;28;20126;-86
2022/12/13 09:20:41;;;;;;;52.15;16.88;;;;;;;-148.88;100.00;77878.06;4996800;28;20033;-87
2022/12/13 09:23:06;;;;;;;67.28;18.10;;;;;;;-148.88;100.00;77865.84;4996784;28;20112;-85
2022/12/13 09:25:32;;;;;;;60.03;16.73;;;;;;;-148.88;100.00;77861.78;4997763;28;20034;-88
2022/12/13 09:28:00;;;;;;;68.60;19.55;;;;;;;-148.88;100.00;77849.59;4997488;28;20539;-87
2022/12/13 09:30:26;;;;;;;62.33;18.85;;;;;;;-148.88;100.00;77847.56;4997691;28;20033;-88
2022/12/13 09:32:52;;;;;;;61.42;17.83;;;;;;;-148.88;100.00;77849.59;4997980;28;20090;-87
2022/12/13 09:35:17;;;;;;;63.53;19.05;;;;;;;-148.88;100.00;77831.31;4997473;28;20058;-87
2022/12/13 09:37:42;;;;;;;60.97;18.83;;;;;;;-148.88;100.00;77841.47;4998265;28;20054;-88
2022/12/13 09:40:17;;;;;;;55.03;16.30;;;;;;;-148.88;100.00;77837.41;4998020;28;20034;-87
2022/12/13 09:42:48;;;;;;;55.78;17.83;;;;;;;-148.88;100.00;77859.75;4997441;28;20018;-87
2022/12/13 09:45:14;;;;;;;70.47;18.45;;;;;;;-148.88;100.00;77847.56;4997773;28;20098;-88
2022/12/13 09:47:41;;;;;;;64.95;17.52;;;;;;;-148.88;100.00;77829.28;4997096;28;20113;-86
2022/12/13 09:50:12;;;;;;;63.92;19.85;;;;;;;-148.88;100.00;77815.06;4997159;28;20053;-87
2022/12/13 09:52:41;;;;;;;56.88;16.92;;;;;;;-148.88;100.00;77802.84;4996799;28;20469;-87
2022/12/13 09:55:20;;;;;;;60.08;17.95;;;;;;;-148.88;100.00;77804.88;4996665;28;20049;-88
2022/12/13 09:57:47;;;;;;;65.65;18.52;;;;;;;-148.88;100.00;77800.81;4997650;28;20076;-88
2022/12/13 10:00:16;;;;;;;63.20;19.38;;;;;;;-148.88;100.00;77786.59;4996521;28;20026;-87
2022/12/13 10:02:53;;;;;;;54.13;17.80;;;;;;;-148.88;100.00;77770.34;4996501;28;20026;-87
2022/12/13 10:05:27;;;;;;;61.55;18.75;;;;;;;-148.88;100.00;77768.31;4995861;28;20493;-89
2022/12/13 10:07:55;;;;;;;60.50;19.02;;;;;;;-148.88;100.00;77756.13;4996374;28;20052;-87
2022/12/13 10:10:21;;;;;;;56.30;18.67;;;;;;;-148.88;100.00;77743.94;4996040;28;20029;-88
2022/12/13 10:13:02;;;;;;;54.90;18.30;;;;;;;-148.88;100.00;77735.78;4994786;28;20117;-88
2022/12/13 10:15:30;;;;;;;54.00;17.48;;;;;;;-148.88;100.00;77729.69;4995746;28;20086;-87
2022/12/13 10:17:56;;;;;;;61.22;18.23;;;;;;;-148.88;100.00;77715.47;4996036;28;20109;-88
2022/12/13 10:20:27;;;;;;;59.03;18.30;;;;;;;-148.88;100.00;77699.22;4995740;28;20485;-88
2022/12/13 10:22:53;;;;;;;58.63;18.33;;;;;;;-148.88;100.00;77676.88;4995261;28;20109;-88
2022/12/13 10:25:46;;;;;;;63.47;18.38;;;;;;;-148.88;100.00;77674.84;4995298;28;20065;-87
2022/12/13 10:28:14;;;;;;;59.05;19.40;;;;;;;-148.88;100.00;77676.88;4995173;28;20030;-87
2022/12/13 10:30:41;;;;;;;55.03;18.90;;;;;;;-148.88;100.00;77642.31;4995382;28;20489;-86
2022/12/13 10:33:20;;;;;;;55.42;17.05;;;;;;;-148.88;100.00;77650.44;4998304;28;20540;-88
2022/12/13 10:36:01;;;;;;;60.03;18.25;;;;;;;-148.88;100.00;77644.34;4995743;28;20065;-88
2022/12/13 10:38:29;;;;;;;58.95;17.27;;;;;;;-148.88;100.00;77638.25;4994764;28;20024;-89
2022/12/13 10:40:54;;;;;;;53.72;17.90;;;;;;;-148.88;100.00;77622.00;4994940;28;20026;-89
2022/12/13 10:43:29;;;;;;;62.17;18.10;;;;;;;-148.88;100.00;77599.63;4995381;28;20365;-88
2022/12/13 10:46:02;;;;;;;54.75;17.05;;;;;;;-148.88;100.00;77579.31;4994297;28;20505;-88
2022/12/13 10:48:38;;;;;;;55.30;18.13;;;;;;;-148.88;100.00;77538.69;4994488;28;20026;-88
2022/12/13 10:51:07;;;;;;;58.55;17.67;;;;;;;-148.88;100.00;77526.47;4994577;28;20037;-88
2022/12/13 10:53:38;;;;;;;52.40;16.67;;;;;;;-148.88;100.00;77552.91;4994696;28;20032;-88
2022/12/13 10:56:04;;;;;;;61.22;18.27;;;;;;;-148.88;100.00;77516.31;4995358;28;20465;-89
2022/12/13 10:58:35;;;;;;;50.28;16.45;;;;;;;-148.88;100.00;77502.09;4995121;28;20472;-88
2022/12/13 11:01:21;;;;;;;45.17;15.63;;;;;;;-148.88;100.00;77471.63;4996308;28;20026;-89
2022/12/13 11:04:22;;;;;;;47.75;16.75;;;;;;;-148.88;100.00;77435.03;4996621;28;20023;-88
2022/12/13 11:06:48;;;;;;;48.28;17.33;;;;;;;-148.88;100.00;77420.81;4997757;28;20480;-89
2022/12/13 11:09:31;;;;;;;47.92;17.33;;;;;;;-148.88;100.00;77414.72;4997609;28;20022;-88
2022/12/13 11:12:00;;;;;;;56.85;19.48;;;;;;;-148.88;100.00;77435.03;4996145;28;20036;-89
2022/12/13 11:14:32;;;;;;;47.03;18.80;;;;;;;-148.88;100.00;77439.09;4995684;28;20366;-89
2022/12/13 11:17:07;;;;;;;56.22;21.30;;;;;;;-148.88;100.00;77410.66;4994852;28;20029;-88
2022/12/13 11:19:39;;;;;;;57.90;18.83;;;;;;;-148.88;100.00;77410.66;4996076;28;20392;-89
2022/12/13 11:22:08;;;;;;;45.80;18.52;;;;;;;-148.88;100.00;77388.31;4995419;28;20374;-88
2022/12/13 11:24:37;;;;;;;55.08;18.38;;;;;;;-148.88;100.00;77363.91;4993732;28;20045;-86
2022/12/13 11:27:22;;;;;;;49.35;20.00;;;;;;;-148.88;100.00;77353.75;4993735;28;20030;-88
2022/12/13 11:30:07;;;;;;;51.50;18.42;;;;;;;-148.88;100.00;77351.72;4994650;28;20086;-87
2022/12/13 11:32:55;;;;;;;45.97;18.35;;;;;;;-148.88;99.91;77394.41;4995588;28;20022;-88
2022/12/13 11:35:27;;;;;;;51.13;17.65;;;;;;;-148.88;99.83;77376.13;4994121;28;20477;-87
2022/12/13 11:38:21;;;;;;;44.88;17.40;;;;;;;-148.88;100.00;77341.56;4993542;28;20404;-88
2022/12/13 11:40:58;;;;;;;47.17;18.92;;;;;;;-148.88;99.51;77323.28;4994162;28;20037;-88